createdAt,value
2018-07-27T00:00:36.185Z,56.98
2018-07-27T00:03:02.201Z,57.70
2018-07-27T00:05:28.166Z,57.68
2018-07-27T00:07:54.142Z,56.87
2018-07-27T00:10:20.115Z,56.65
2018-07-27T00:12:46.083Z,56.63
2018-07-27T00:15:12.030Z,57.34
2018-07-27T00:17:38.009Z,57.13
2018-07-27T00:20:03.992Z,57.08
2018-07-27T00:22:29.963Z,57.71
2018-07-27T00:24:55.920Z,56.78
2018-07-27T00:27:21.907Z,56.60
2018-07-27T00:29:47.872Z,56.69
2018-07-27T00:32:13.853Z,56.15
2018-07-27T00:34:39.815Z,56.42
2018-07-27T00:37:05.776Z,56.99
2018-07-27T00:39:31.746Z,56.86
2018-07-27T00:41:57.702Z,56.59
2018-07-27T00:44:23.673Z,56.04
2018-07-27T00:46:49.656Z,57.05
2018-07-27T00:49:15.621Z,56.82
2018-07-27T00:51:41.594Z,56.26
2018-07-27T00:54:07.580Z,57.00
2018-07-27T00:56:33.533Z,56.17
2018-07-27T00:58:59.506Z,55.92
2018-07-27T01:01:25.542Z,55.35
2018-07-27T01:03:51.503Z,55.93
2018-07-27T01:06:18.248Z,56.60
2018-07-27T01:08:44.215Z,56.26
2018-07-27T01:11:10.204Z,54.86
2018-07-27T01:13:36.156Z,55.09
2018-07-27T01:16:02.177Z,55.39
2018-07-27T01:18:28.125Z,55.11
2018-07-27T01:20:54.100Z,55.95
2018-07-27T01:23:20.069Z,55.22
2018-07-27T01:25:46.042Z,55.49
2018-07-27T01:28:12.023Z,55.99
2018-07-27T01:30:38.048Z,55.35
2018-07-27T01:33:04.014Z,55.57
2018-07-27T01:35:29.980Z,54.97
2018-07-27T01:37:55.927Z,54.92
2018-07-27T01:40:21.913Z,54.77
2018-07-27T01:42:47.899Z,55.48
2018-07-27T01:45:13.893Z,55.10
2018-07-27T01:47:39.856Z,53.70
2018-07-27T01:50:05.849Z,54.75
2018-07-27T01:52:31.806Z,54.22
2018-07-27T01:54:57.781Z,55.45
2018-07-27T01:57:23.751Z,54.72
2018-07-27T01:59:49.732Z,53.63
2018-07-27T02:02:15.697Z,53.82
2018-07-27T02:04:44.153Z,53.76
2018-07-27T02:07:10.182Z,55.47
2018-07-27T02:09:36.140Z,53.72
2018-07-27T02:12:02.117Z,54.53
2018-07-27T02:14:28.072Z,53.66
2018-07-27T02:16:54.021Z,53.57
2018-07-27T02:19:20.075Z,53.97
2018-07-27T02:21:46.008Z,54.62
2018-07-27T02:24:11.989Z,53.53
2018-07-27T02:26:37.952Z,54.25
2018-07-27T02:29:03.912Z,53.69
2018-07-27T02:31:29.905Z,54.26
2018-07-27T02:33:55.898Z,52.88
2018-07-27T02:36:21.932Z,54.44
2018-07-27T02:38:47.880Z,53.83
2018-07-27T02:41:13.856Z,53.27
2018-07-27T02:43:39.814Z,54.46
2018-07-27T02:46:05.793Z,54.48
2018-07-27T02:48:31.772Z,53.66
2018-07-27T02:50:57.741Z,53.85
2018-07-27T02:53:23.712Z,53.67
2018-07-27T02:55:49.679Z,53.54
2018-07-27T02:58:15.684Z,54.14
2018-07-27T03:00:41.635Z,52.12
2018-07-27T03:03:07.622Z,53.88
2018-07-27T03:05:33.614Z,52.79
2018-07-27T03:07:59.560Z,53.41
2018-07-27T03:10:25.530Z,53.26
2018-07-27T03:12:51.499Z,53.49
2018-07-27T03:15:17.480Z,54.01
2018-07-27T03:17:43.552Z,52.37
2018-07-27T03:20:09.506Z,52.62
2018-07-27T03:22:35.469Z,54.75
2018-07-27T03:25:01.505Z,53.91
2018-07-27T03:27:27.477Z,53.26
2018-07-27T03:29:53.423Z,53.59
2018-07-27T03:32:19.399Z,53.42
2018-07-27T03:34:45.358Z,52.66
2018-07-27T03:37:11.335Z,52.76
2018-07-27T03:39:37.287Z,52.88
2018-07-27T03:42:03.270Z,52.75
2018-07-27T03:44:29.219Z,53.05
2018-07-27T03:46:55.189Z,53.54
2018-07-27T03:49:21.149Z,52.85
2018-07-27T03:51:47.116Z,52.37
2018-07-27T03:54:13.086Z,51.70
2018-07-27T03:56:39.068Z,52.28
2018-07-27T03:59:05.017Z,52.22
2018-07-27T04:01:30.963Z,52.00
2018-07-27T04:03:57.504Z,52.68
2018-07-27T04:06:23.475Z,52.51
2018-07-27T04:08:49.460Z,53.06
2018-07-27T04:11:15.412Z,52.16
2018-07-27T04:13:41.393Z,52.84
2018-07-27T04:16:07.350Z,52.41
2018-07-27T04:18:33.326Z,52.95
2018-07-27T04:20:59.292Z,53.02
2018-07-27T04:23:25.263Z,51.57
2018-07-27T04:25:51.212Z,53.17
2018-07-27T04:28:17.341Z,52.30
2018-07-27T04:30:43.299Z,51.83
2018-07-27T04:33:09.280Z,52.18
2018-07-27T04:35:35.266Z,52.67
2018-07-27T04:38:01.227Z,53.44
2018-07-27T04:40:27.173Z,52.08
2018-07-27T04:42:53.156Z,52.29
2018-07-27T04:45:19.097Z,52.32
2018-07-27T04:47:45.051Z,51.88
2018-07-27T04:50:11.083Z,53.13
2018-07-27T04:52:37.040Z,53.06
2018-07-27T04:55:03.019Z,53.48
2018-07-27T04:57:29.052Z,52.99
2018-07-27T04:59:55.005Z,52.76
2018-07-27T05:02:20.984Z,52.43
2018-07-27T05:04:46.989Z,52.62
2018-07-27T05:07:12.897Z,52.73
2018-07-27T05:09:38.852Z,52.22
2018-07-27T05:12:04.817Z,52.08
2018-07-27T05:14:30.816Z,53.34
2018-07-27T05:16:56.785Z,53.14
2018-07-27T05:19:22.764Z,53.27
2018-07-27T05:21:48.966Z,52.87
2018-07-27T05:24:14.980Z,52.32
2018-07-27T05:26:40.972Z,51.72
2018-07-27T05:29:06.954Z,51.75
2018-07-27T05:31:32.935Z,51.58
2018-07-27T05:33:58.922Z,51.42
2018-07-27T05:36:24.905Z,53.12
2018-07-27T05:38:50.922Z,51.65
2018-07-27T05:41:16.904Z,51.81
2018-07-27T05:43:42.861Z,52.14
2018-07-27T05:46:08.852Z,52.28
2018-07-27T05:48:34.859Z,53.39
2018-07-27T05:51:00.783Z,52.02
2018-07-27T05:53:26.759Z,51.93
2018-07-27T05:55:52.775Z,51.21
2018-07-27T05:58:18.761Z,51.45
2018-07-27T06:00:44.832Z,52.18
2018-07-27T06:03:10.845Z,51.37
2018-07-27T06:05:36.804Z,51.21
2018-07-27T06:08:02.759Z,50.96
2018-07-27T06:10:28.751Z,51.08
2018-07-27T06:12:54.737Z,53.48
2018-07-27T06:15:20.719Z,54.51
2018-07-27T06:17:46.681Z,53.10
2018-07-27T06:20:12.647Z,52.55
2018-07-27T06:22:38.621Z,52.47
2018-07-27T06:25:04.540Z,51.75
2018-07-27T06:27:30.516Z,51.54
2018-07-27T06:29:56.506Z,52.64
2018-07-27T06:32:22.470Z,52.58
2018-07-27T06:34:48.414Z,53.03
2018-07-27T06:37:14.395Z,53.10
2018-07-27T06:39:40.383Z,53.10
2018-07-27T06:42:06.344Z,51.80
2018-07-27T06:44:32.293Z,52.70
2018-07-27T06:46:58.263Z,52.30
2018-07-27T06:49:24.214Z,52.42
2018-07-27T06:51:50.168Z,52.46
2018-07-27T06:54:16.126Z,51.40
2018-07-27T06:56:42.116Z,52.66
2018-07-27T06:59:08.101Z,51.99
2018-07-27T07:01:34.071Z,51.75
2018-07-27T07:04:00.070Z,51.58
2018-07-27T07:06:26.018Z,51.93
2018-07-27T07:08:51.993Z,52.97
2018-07-27T07:11:17.938Z,51.88
2018-07-27T07:13:43.950Z,52.66
2018-07-27T07:16:09.907Z,51.99
2018-07-27T07:18:35.867Z,52.22
2018-07-27T07:21:01.825Z,53.10
2018-07-27T07:23:27.786Z,53.04
2018-07-27T07:25:53.996Z,53.55
2018-07-27T07:28:19.798Z,51.72
2018-07-27T07:30:45.786Z,53.34
2018-07-27T07:33:11.761Z,52.63
2018-07-27T07:35:37.783Z,52.33
2018-07-27T07:38:03.816Z,54.64
2018-07-27T07:40:29.856Z,54.24
2018-07-27T07:42:55.876Z,52.63
2018-07-27T07:45:21.852Z,53.11
2018-07-27T07:47:47.815Z,53.46
2018-07-27T07:50:13.763Z,54.04
2018-07-27T07:52:39.744Z,54.18
2018-07-27T07:55:05.710Z,54.43
2018-07-27T07:57:31.669Z,53.79
2018-07-27T07:59:57.616Z,53.45
2018-07-27T08:02:23.615Z,53.20
2018-07-27T08:04:49.555Z,53.31
2018-07-27T08:07:15.510Z,53.59
2018-07-27T08:09:41.458Z,53.39
2018-07-27T08:12:07.401Z,55.06
2018-07-27T08:14:33.352Z,53.35
2018-07-27T08:16:59.312Z,53.27
2018-07-27T08:19:25.290Z,52.96
2018-07-27T08:21:51.248Z,52.93
2018-07-27T08:24:17.217Z,53.22
2018-07-27T08:26:43.381Z,52.99
2018-07-27T08:29:09.369Z,52.81
2018-07-27T08:31:35.334Z,52.68
2018-07-27T08:34:01.304Z,53.18
2018-07-27T08:36:27.307Z,53.16
2018-07-27T08:38:53.350Z,53.05
2018-07-27T08:41:19.274Z,54.44
2018-07-27T08:43:45.240Z,53.21
2018-07-27T08:46:11.206Z,54.00
2018-07-27T08:48:37.147Z,53.94
2018-07-27T08:51:03.104Z,54.89
2018-07-27T08:53:29.063Z,53.98
2018-07-27T08:55:55.031Z,54.66
2018-07-27T08:58:21.124Z,53.94
2018-07-27T09:00:47.083Z,55.06
2018-07-27T09:03:13.053Z,54.10
2018-07-27T09:05:39.072Z,55.04
2018-07-27T09:08:05.025Z,54.15
2018-07-27T09:10:30.971Z,54.36
2018-07-27T09:12:56.899Z,54.73
2018-07-27T09:15:22.885Z,54.91
2018-07-27T09:17:48.832Z,55.48
2018-07-27T09:20:14.783Z,55.52
2018-07-27T09:22:40.737Z,54.65
2018-07-27T09:25:06.917Z,54.74
2018-07-27T09:27:32.671Z,54.54
2018-07-27T09:29:58.639Z,54.58
2018-07-27T09:32:24.595Z,54.58
2018-07-27T09:34:50.565Z,54.78
2018-07-27T09:37:16.554Z,54.33
2018-07-27T09:39:42.513Z,55.43
2018-07-27T09:42:08.493Z,54.98
2018-07-27T09:44:34.431Z,54.57
2018-07-27T09:47:00.383Z,55.18
2018-07-27T09:49:26.343Z,55.27
2018-07-27T09:51:52.307Z,55.36
2018-07-27T09:54:18.291Z,55.67
2018-07-27T09:56:44.242Z,54.63
2018-07-27T09:59:10.194Z,55.34
2018-07-27T10:01:36.139Z,54.80
2018-07-27T10:04:02.112Z,55.69
2018-07-27T10:06:28.076Z,55.36
2018-07-27T10:08:54.036Z,55.12
2018-07-27T10:11:20.015Z,55.66
2018-07-27T10:13:45.992Z,54.87
2018-07-27T10:16:11.949Z,55.78
2018-07-27T10:18:37.920Z,55.89
2018-07-27T10:21:03.875Z,55.95
2018-07-27T10:23:29.835Z,55.38
2018-07-27T10:25:55.788Z,55.85
2018-07-27T10:28:21.834Z,56.19
2018-07-27T10:30:47.760Z,55.37
2018-07-27T10:33:13.711Z,54.45
2018-07-27T10:35:39.732Z,54.93
2018-07-27T10:38:06.552Z,55.10
2018-07-27T10:40:32.516Z,55.53
2018-07-27T10:42:58.499Z,56.03
2018-07-27T10:45:24.468Z,55.24
2018-07-27T10:47:50.431Z,55.10
2018-07-27T10:50:16.404Z,55.04
2018-07-27T10:52:42.353Z,55.82
2018-07-27T10:55:08.328Z,55.85
2018-07-27T10:57:34.300Z,56.12
2018-07-27T11:00:00.259Z,55.34
2018-07-27T11:02:26.269Z,55.49
2018-07-27T11:04:52.175Z,55.85
2018-07-27T11:07:18.164Z,55.12
2018-07-27T11:09:44.116Z,55.39
2018-07-27T11:12:10.056Z,55.94
2018-07-27T11:14:36.022Z,55.84
2018-07-27T11:17:01.965Z,55.63
2018-07-27T11:19:27.936Z,56.50
2018-07-27T11:21:54.276Z,55.50
2018-07-27T11:24:20.256Z,56.48
2018-07-27T11:26:46.203Z,56.36
2018-07-27T11:29:12.151Z,55.83
2018-07-27T11:31:38.117Z,55.88
2018-07-27T11:34:04.109Z,55.70
2018-07-27T11:36:30.060Z,56.81
2018-07-27T11:38:56.059Z,55.85
2018-07-27T11:41:22.015Z,56.43
2018-07-27T11:43:47.974Z,55.51
2018-07-27T11:46:13.959Z,55.52
2018-07-27T11:48:39.947Z,55.35
2018-07-27T11:51:05.907Z,55.70
2018-07-27T11:53:31.883Z,55.62
2018-07-27T11:55:57.828Z,55.19
2018-07-27T11:58:23.788Z,56.29
2018-07-27T12:00:49.757Z,55.81
2018-07-27T12:03:15.731Z,56.20
2018-07-27T12:05:41.692Z,56.91
2018-07-27T12:08:07.659Z,56.41
2018-07-27T12:10:33.618Z,56.17
2018-07-27T12:12:59.591Z,55.84
2018-07-27T12:15:25.636Z,56.16
2018-07-27T12:17:51.605Z,55.44
2018-07-27T12:20:17.557Z,56.24
2018-07-27T12:22:43.504Z,55.45
2018-07-27T12:25:09.489Z,56.24
2018-07-27T12:27:35.450Z,55.96
2018-07-27T12:30:01.404Z,56.54
2018-07-27T12:32:27.561Z,56.62
2018-07-27T12:34:53.523Z,56.03
2018-07-27T12:37:19.464Z,55.70
2018-07-27T12:39:45.427Z,55.76
2018-07-27T12:42:11.392Z,56.15
2018-07-27T12:44:37.378Z,56.19
2018-07-27T12:47:03.353Z,57.09
2018-07-27T12:49:29.321Z,57.03
2018-07-27T12:51:55.273Z,55.70
2018-07-27T12:54:21.261Z,56.75
2018-07-27T12:56:47.283Z,57.02
2018-07-27T12:59:13.258Z,56.06
2018-07-27T13:01:39.209Z,56.25
2018-07-27T13:04:05.156Z,56.02
2018-07-27T13:06:31.123Z,56.98
2018-07-27T13:08:57.095Z,56.17
2018-07-27T13:11:23.058Z,55.92
2018-07-27T13:13:49.034Z,56.93
2018-07-27T13:16:15.047Z,56.96
2018-07-27T13:18:41.010Z,56.99
2018-07-27T13:21:07.056Z,56.57
2018-07-27T13:23:33.031Z,56.71
2018-07-27T13:28:25.006Z,56.83
2018-07-27T13:30:50.996Z,57.48
2018-07-27T13:33:17.000Z,56.49
2018-07-27T13:38:08.935Z,57.04
2018-07-27T13:40:34.879Z,56.41
2018-07-27T13:43:00.850Z,56.41
2018-07-27T13:45:26.843Z,56.50
2018-07-27T13:47:52.922Z,57.18
2018-07-27T13:50:18.867Z,56.74
2018-07-27T13:52:44.826Z,56.26
2018-07-27T13:55:10.769Z,57.42
2018-07-27T13:57:36.808Z,56.46
2018-07-27T14:00:02.744Z,57.08
2018-07-27T14:02:28.700Z,56.36
2018-07-27T14:04:54.677Z,57.44
2018-07-27T14:07:20.629Z,56.96
2018-07-27T14:09:46.615Z,57.80
2018-07-27T14:12:12.580Z,57.57
2018-07-27T14:14:38.552Z,56.43
2018-07-27T14:17:04.514Z,56.44
2018-07-27T14:19:30.490Z,57.11
2018-07-27T14:21:56.443Z,57.41
2018-07-27T14:24:22.387Z,56.10
2018-07-27T14:26:48.371Z,56.12
2018-07-27T14:29:14.389Z,56.57
2018-07-27T14:31:40.310Z,56.93
2018-07-27T14:34:06.292Z,56.70
2018-07-27T14:36:32.257Z,57.41
2018-07-27T14:38:58.214Z,57.05
2018-07-27T14:41:24.168Z,57.40
2018-07-27T14:43:50.182Z,56.58
2018-07-27T14:46:16.143Z,57.38
2018-07-27T14:48:42.088Z,56.35
2018-07-27T14:51:08.110Z,56.72
2018-07-27T14:53:34.089Z,56.67
2018-07-27T14:56:00.043Z,57.34
2018-07-27T14:58:26.007Z,57.21
2018-07-27T15:00:51.972Z,57.19
2018-07-27T15:03:17.947Z,56.54
2018-07-27T15:05:43.925Z,57.30
2018-07-27T15:08:09.904Z,57.14
2018-07-27T15:10:35.914Z,57.77
2018-07-27T15:13:01.870Z,56.31
2018-07-27T15:15:27.835Z,56.17
2018-07-27T15:17:53.789Z,57.28
2018-07-27T15:20:19.777Z,57.62
2018-07-27T15:22:45.745Z,56.50
2018-07-27T15:25:11.716Z,56.65
2018-07-27T15:27:37.673Z,57.82
2018-07-27T15:30:03.666Z,56.90
2018-07-27T15:32:29.638Z,57.16
2018-07-27T15:34:55.617Z,57.17
2018-07-27T15:37:21.585Z,57.21
2018-07-27T15:39:47.524Z,57.69
2018-07-27T15:42:13.490Z,56.95
2018-07-27T15:44:39.465Z,57.28
2018-07-27T15:47:05.406Z,57.39
2018-07-27T15:49:31.426Z,57.83
2018-07-27T15:51:57.391Z,57.81
2018-07-27T15:54:23.345Z,56.97
2018-07-27T15:56:49.286Z,58.11
2018-07-27T15:59:15.324Z,57.30
2018-07-27T16:01:41.295Z,57.62
2018-07-27T16:04:07.264Z,57.08
2018-07-27T16:06:33.265Z,57.76
2018-07-27T16:08:59.231Z,56.93
2018-07-27T16:11:25.192Z,57.08
2018-07-27T16:13:51.188Z,57.80
2018-07-27T16:16:17.152Z,57.10
2018-07-27T16:18:43.135Z,57.18
2018-07-27T16:21:09.112Z,57.04
2018-07-27T16:23:35.060Z,57.22
2018-07-27T16:26:01.039Z,58.09
2018-07-27T16:28:27.085Z,58.05
2018-07-27T16:30:53.055Z,56.70
2018-07-27T16:33:19.008Z,56.80
2018-07-27T16:35:44.982Z,57.43
2018-07-27T16:38:10.935Z,58.45
2018-07-27T16:40:36.922Z,57.45
2018-07-27T16:43:02.952Z,57.47
2018-07-27T16:45:28.897Z,56.87
2018-07-27T16:47:54.846Z,57.71
2018-07-27T16:50:20.877Z,57.13
2018-07-27T16:52:46.877Z,57.34
2018-07-27T16:55:12.807Z,57.45
2018-07-27T16:57:38.763Z,57.30
2018-07-27T17:00:04.727Z,57.54
2018-07-27T17:02:30.680Z,58.37
2018-07-27T17:04:56.687Z,58.30
2018-07-27T17:07:22.637Z,57.98
2018-07-27T17:09:48.596Z,57.60
2018-07-27T17:12:14.639Z,57.07
2018-07-27T17:14:40.530Z,58.14
2018-07-27T17:17:06.516Z,58.19
2018-07-27T17:19:32.480Z,57.42
2018-07-27T17:21:58.453Z,58.13
2018-07-27T17:24:24.407Z,57.59
2018-07-27T17:26:50.380Z,58.26
2018-07-27T17:29:16.323Z,58.21
2018-07-27T17:31:42.340Z,58.14
2018-07-27T17:34:08.304Z,57.21
2018-07-27T17:36:34.251Z,57.75
2018-07-27T17:39:00.214Z,57.32
2018-07-27T17:41:26.179Z,57.44
2018-07-27T17:43:52.152Z,57.77
2018-07-27T17:46:18.118Z,57.64
2018-07-27T17:48:44.104Z,58.59
2018-07-27T17:51:10.061Z,58.23
2018-07-27T17:53:36.075Z,58.35
2018-07-27T17:56:02.049Z,57.56
2018-07-27T17:58:28.015Z,57.32
2018-07-27T18:00:53.961Z,57.94
2018-07-27T18:03:19.935Z,58.15
2018-07-27T18:05:45.887Z,57.28
2018-07-27T18:08:11.853Z,57.52
2018-07-27T18:10:37.805Z,58.19
2018-07-27T18:13:03.805Z,57.61
2018-07-27T18:15:29.756Z,58.44
2018-07-27T18:17:55.710Z,58.03
2018-07-27T18:20:21.684Z,58.67
2018-07-27T18:22:47.661Z,58.25
2018-07-27T18:25:13.690Z,58.35
2018-07-27T18:27:39.580Z,58.88
2018-07-27T18:30:05.595Z,58.45
2018-07-27T18:32:31.620Z,57.90
2018-07-27T18:34:57.644Z,58.50
2018-07-27T18:37:23.588Z,58.68
2018-07-27T18:39:49.668Z,58.86
2018-07-27T18:42:15.724Z,59.20
2018-07-27T18:44:41.706Z,57.57
2018-07-27T18:47:07.666Z,57.81
2018-07-27T18:49:33.603Z,57.86
2018-07-27T18:51:59.587Z,58.91
2018-07-27T18:54:25.573Z,58.18
2018-07-27T18:56:51.536Z,58.24
2018-07-27T18:59:17.511Z,59.25
2018-07-27T19:01:43.594Z,59.19
2018-07-27T19:04:09.518Z,58.74
2018-07-27T19:06:35.492Z,58.54
2018-07-27T19:09:01.454Z,59.34
2018-07-27T19:11:27.437Z,58.59
2018-07-27T19:13:53.394Z,59.18
2018-07-27T19:16:19.354Z,59.25
2018-07-27T19:18:45.321Z,59.13
2018-07-27T19:21:11.311Z,59.16
2018-07-27T19:23:37.301Z,59.10
2018-07-27T19:26:03.249Z,58.66
2018-07-27T19:28:29.207Z,58.43
2018-07-27T19:30:55.194Z,59.32
2018-07-27T19:33:21.216Z,58.22
2018-07-27T19:38:19.552Z,59.01
2018-07-27T19:40:45.548Z,59.35
2018-07-27T19:43:11.516Z,58.46
2018-07-27T19:45:37.479Z,58.82
2018-07-27T19:48:03.461Z,59.03
2018-07-27T19:50:29.411Z,59.26
2018-07-27T19:52:55.375Z,58.28
2018-07-27T19:55:21.632Z,58.34
2018-07-27T19:57:47.602Z,58.35
2018-07-27T20:00:13.587Z,58.93
2018-07-27T20:02:39.553Z,58.32
2018-07-27T20:05:05.520Z,58.26
2018-07-27T20:07:31.701Z,58.44
2018-07-27T20:09:57.775Z,59.13
2018-07-27T20:12:23.760Z,59.13
2018-07-27T20:14:49.763Z,58.38
2018-07-27T20:17:15.752Z,58.45
2018-07-27T20:19:41.738Z,59.27
2018-07-27T20:22:07.724Z,58.32
2018-07-27T20:24:33.694Z,59.53
2018-07-27T20:26:59.690Z,58.88
2018-07-27T20:29:25.693Z,59.02
2018-07-27T20:31:51.655Z,59.20
2018-07-27T20:34:17.664Z,58.55
2018-07-27T20:36:43.667Z,58.26
2018-07-27T20:39:09.644Z,58.45
2018-07-27T20:41:35.723Z,58.67
2018-07-27T20:44:01.802Z,57.91
2018-07-27T20:46:27.738Z,58.79
2018-07-27T20:48:53.723Z,58.71
2018-07-27T20:51:19.700Z,58.53
2018-07-27T20:53:45.696Z,57.61
2018-07-27T20:56:11.692Z,58.67
2018-07-27T20:58:37.657Z,58.53
2018-07-27T21:01:03.651Z,57.90
2018-07-27T21:03:29.626Z,56.89
2018-07-27T21:05:55.646Z,56.85
2018-07-27T21:08:21.625Z,56.25
2018-07-27T21:10:47.624Z,57.14
2018-07-27T21:13:13.702Z,58.30
2018-07-27T21:15:39.708Z,58.07
2018-07-27T21:18:05.679Z,57.12
2018-07-27T21:20:31.699Z,57.25
2018-07-27T21:22:57.688Z,56.98
2018-07-27T21:25:23.650Z,57.53
2018-07-27T21:27:49.611Z,57.39
2018-07-27T21:30:15.604Z,56.42
2018-07-27T21:32:41.657Z,56.84
2018-07-27T21:35:07.630Z,57.16
2018-07-27T21:37:33.652Z,56.60
2018-07-27T21:39:59.748Z,54.50
2018-07-27T21:42:25.728Z,56.31
2018-07-27T21:44:51.691Z,55.73
2018-07-27T21:47:17.661Z,53.80
2018-07-27T21:49:43.644Z,54.60
2018-07-27T21:52:09.626Z,55.15
2018-07-27T21:54:35.608Z,55.47
2018-07-27T21:57:01.577Z,55.77
2018-07-27T21:59:27.588Z,54.06
2018-07-27T22:01:53.564Z,55.00
2018-07-27T22:04:19.750Z,54.65
2018-07-27T22:06:46.035Z,55.44
2018-07-27T22:09:12.004Z,53.77
2018-07-27T22:11:38.002Z,55.39
2018-07-27T22:14:03.957Z,52.76
2018-07-27T22:16:29.947Z,52.96
2018-07-27T22:18:55.945Z,54.73
2018-07-27T22:21:21.952Z,51.54
2018-07-27T22:23:48.014Z,51.83
2018-07-27T22:26:13.951Z,52.97
2018-07-27T22:28:39.989Z,54.20
2018-07-27T22:31:05.981Z,54.45
2018-07-27T22:33:32.037Z,52.69
2018-07-27T22:35:58.012Z,53.30
2018-07-27T22:38:23.981Z,50.78
2018-07-27T22:40:50.123Z,52.46
2018-07-27T22:43:15.953Z,52.16
2018-07-27T22:45:41.931Z,54.00
2018-07-27T22:48:07.910Z,52.86
2018-07-27T22:50:33.980Z,53.04
2018-07-27T22:53:00.001Z,50.82
2018-07-27T22:55:26.168Z,50.69
2018-07-27T22:57:52.147Z,51.56
2018-07-27T23:00:18.122Z,52.81
2018-07-27T23:02:44.125Z,52.20
2018-07-27T23:05:10.112Z,52.33
2018-07-27T23:07:36.123Z,50.96
2018-07-27T23:10:02.104Z,51.07
2018-07-27T23:12:28.091Z,52.26
2018-07-27T23:14:54.066Z,52.50
2018-07-27T23:17:20.052Z,51.38
2018-07-27T23:19:46.023Z,54.73
2018-07-27T23:22:12.042Z,54.74
2018-07-27T23:24:38.076Z,52.08
2018-07-27T23:27:04.064Z,51.22
2018-07-27T23:29:30.060Z,50.71
2018-07-27T23:31:56.028Z,51.50
2018-07-27T23:34:22.086Z,52.79
2018-07-27T23:36:48.076Z,52.20
2018-07-27T23:39:14.048Z,53.03
2018-07-27T23:41:40.045Z,52.17
2018-07-27T23:44:06.036Z,52.23
2018-07-27T23:46:32.126Z,50.75
2018-07-27T23:48:58.092Z,51.84
2018-07-27T23:51:24.076Z,52.70
2018-07-27T23:53:50.057Z,52.14
2018-07-27T23:56:16.053Z,53.20
2018-07-27T23:58:42.036Z,52.93
